Time;durP1;ratioP1;P1;durP2;ratioP2;P2;SDS_P1;SDS_P2;PMS_P1;PMS_P2;Temp;Humidity;BMP_temperature;BMP_pressure;BME280_temperature;BME280_humidity;BME280_pressure;Samples;Min_cycle;Max_cycle;Signal;HPM_P1;HPM_P2
2023/09/30 00:01:22;;;;;;;11.82;4.40;;;12.40;99.90;;;;;;5066347;28;20072;-61
2023/09/30 00:03:47;;;;;;;13.38;3.80;;;12.40;99.90;;;;;;5073714;28;20103;-61
2023/09/30 00:06:13;;;;;;;9.50;4.07;;;12.40;99.90;;;;;;5072774;28;20048;-61
2023/09/30 00:08:41;;;;;;;10.60;3.67;;;12.40;99.90;;;;;;5107506;28;20040;-61
2023/09/30 00:11:07;;;;;;;12.25;4.47;;;12.50;99.90;;;;;;5073879;28;20044;-61
2023/09/30 00:13:33;;;;;;;12.32;3.40;;;12.40;99.90;;;;;;5056437;28;20167;-60
2023/09/30 00:15:58;;;;;;;11.60;4.90;;;12.40;99.90;;;;;;5073770;28;20041;-61
2023/09/30 00:18:24;;;;;;;8.70;3.25;;;12.40;99.90;;;;;;5065055;28;20092;-61
2023/09/30 00:20:50;;;;;;;10.02;3.88;;;12.40;99.90;;;;;;5058626;28;20530;-61
2023/09/30 00:23:16;;;;;;;8.80;3.67;;;12.40;99.90;;;;;;5073345;28;20040;-61
2023/09/30 00:25:42;;;;;;;12.25;4.35;;;12.50;99.90;;;;;;5073318;28;20044;-60
2023/09/30 00:28:08;;;;;;;12.98;4.28;;;12.50;99.90;;;;;;5069039;28;20037;-61
2023/09/30 00:30:33;;;;;;;11.82;3.83;;;12.40;99.90;;;;;;5053288;28;20045;-69
2023/09/30 00:33:00;;;;;;;11.23;3.40;;;12.50;99.90;;;;;;5052861;28;20124;-69
2023/09/30 00:35:25;;;;;;;10.20;3.40;;;12.40;99.90;;;;;;5052996;28;20125;-69
2023/09/30 00:37:51;;;;;;;13.70;4.40;;;12.40;99.90;;;;;;5053200;28;20115;-69
2023/09/30 00:40:17;;;;;;;11.95;3.53;;;12.40;99.90;;;;;;5052371;28;20041;-70
2023/09/30 00:42:42;;;;;;;9.20;4.30;;;12.30;99.90;;;;;;5053348;28;20052;-70
2023/09/30 00:45:09;;;;;;;7.82;3.25;;;12.40;99.90;;;;;;5054312;28;20474;-70
2023/09/30 00:47:36;;;;;;;13.68;4.00;;;12.40;99.90;;;;;;5051203;28;20044;-70
2023/09/30 00:50:03;;;;;;;13.80;4.25;;;12.40;99.90;;;;;;5053265;28;20110;-69
2023/09/30 00:52:32;;;;;;;7.43;3.47;;;12.40;99.90;;;;;;5052770;28;20053;-70
2023/09/30 00:54:58;;;;;;;18.70;4.28;;;12.40;99.90;;;;;;5085796;28;20494;-69
2023/09/30 00:57:24;;;;;;;9.82;3.88;;;12.30;99.90;;;;;;5083158;28;20082;-69
2023/09/30 00:59:51;;;;;;;12.65;3.80;;;12.30;99.90;;;;;;5072428;28;20048;-70
2023/09/30 01:02:22;;;;;;;9.48;3.42;;;12.30;99.90;;;;;;5071836;28;20051;-69
2023/09/30 01:04:48;;;;;;;11.52;3.03;;;12.30;99.90;;;;;;5072693;28;20505;-70
2023/09/30 01:07:14;;;;;;;12.85;3.97;;;12.20;99.90;;;;;;5074070;28;20040;-70
2023/09/30 01:09:40;;;;;;;10.15;3.40;;;12.30;99.90;;;;;;5056435;28;20078;-70
2023/09/30 01:12:07;;;;;;;9.20;3.22;;;12.20;99.90;;;;;;5053032;28;20049;-69
2023/09/30 01:14:41;;;;;;;11.02;3.33;;;12.20;99.90;;;;;;5052420;28;20052;-69
2023/09/30 01:17:09;;;;;;;10.75;3.88;;;12.30;99.90;;;;;;5051574;28;20045;-69
2023/09/30 01:19:35;;;;;;;16.13;3.67;;;12.10;99.90;;;;;;5052314;28;20501;-69
2023/09/30 01:22:05;;;;;;;9.63;3.60;;;12.20;99.90;;;;;;5052438;28;20048;-70
2023/09/30 01:24:37;;;;;;;12.70;4.05;;;12.20;99.90;;;;;;5058890;28;20060;-69
2023/09/30 01:27:03;;;;;;;11.20;3.85;;;12.30;99.90;;;;;;5055942;28;20055;-70
2023/09/30 01:29:29;;;;;;;11.60;2.95;;;12.30;99.90;;;;;;5072542;28;20037;-69
2023/09/30 01:31:55;;;;;;;11.45;2.90;;;12.40;99.90;;;;;;5073424;28;20080;-70
2023/09/30 01:34:21;;;;;;;8.38;3.42;;;12.20;99.90;;;;;;5072218;28;20116;-69
2023/09/30 01:36:46;;;;;;;9.93;3.30;;;12.30;99.90;;;;;;5070666;28;20572;-69
2023/09/30 01:39:15;;;;;;;10.45;3.63;;;12.20;99.90;;;;;;5071953;28;20131;-69
2023/09/30 01:41:41;;;;;;;10.38;3.88;;;12.30;99.90;;;;;;5071890;28;20047;-70
2023/09/30 01:44:08;;;;;;;11.40;3.70;;;12.30;99.90;;;;;;5059101;28;20045;-70
2023/09/30 01:46:34;;;;;;;9.32;3.58;;;12.30;99.90;;;;;;5052002;28;20045;-70
2023/09/30 01:49:00;;;;;;;11.25;3.28;;;12.30;99.90;;;;;;5035409;28;20528;-69
2023/09/30 01:51:27;;;;;;;11.50;3.17;;;12.40;99.90;;;;;;5068467;28;20124;-69
2023/09/30 01:53:53;;;;;;;8.30;3.50;;;12.30;99.90;;;;;;5072544;28;20116;-69
2023/09/30 01:56:19;;;;;;;7.97;3.20;;;12.40;99.90;;;;;;5071694;28;20127;-69
2023/09/30 01:58:47;;;;;;;6.35;2.85;;;12.30;99.90;;;;;;5070861;28;20044;-69
2023/09/30 02:01:13;;;;;;;11.95;3.45;;;12.40;99.90;;;;;;5054700;28;20041;-70
2023/09/30 02:03:39;;;;;;;11.05;4.18;;;12.30;99.90;;;;;;5071454;28;20051;-70
2023/09/30 02:06:05;;;;;;;10.48;3.55;;;12.30;99.90;;;;;;5072179;28;20041;-70
2023/09/30 02:08:31;;;;;;;8.50;3.15;;;12.40;99.90;;;;;;5070698;28;20032;-70
2023/09/30 02:10:57;;;;;;;8.98;2.95;;;12.40;99.90;;;;;;5065286;28;20118;-70
2023/09/30 02:13:22;;;;;;;15.13;4.85;;;12.40;99.90;;;;;;5050416;28;20072;-70
2023/09/30 02:15:48;;;;;;;8.60;3.15;;;12.30;99.90;;;;;;5067828;28;20041;-71
2023/09/30 02:18:14;;;;;;;9.93;3.22;;;12.30;99.90;;;;;;5051204;28;20045;-70
2023/09/30 02:20:40;;;;;;;10.05;2.97;;;12.40;99.90;;;;;;5060624;28;20118;-70
2023/09/30 02:23:07;;;;;;;10.13;3.60;;;12.40;99.90;;;;;;5071749;28;20068;-70
2023/09/30 02:25:33;;;;;;;10.65;3.55;;;12.50;99.90;;;;;;5070492;28;20040;-70
2023/09/30 02:28:00;;;;;;;9.90;3.33;;;12.50;99.90;;;;;;5071230;28;20033;-70
2023/09/30 02:30:27;;;;;;;11.00;3.83;;;12.50;99.90;;;;;;5070972;28;20044;-70
2023/09/30 02:32:53;;;;;;;8.50;3.15;;;12.60;99.90;;;;;;5053663;28;20041;-70
2023/09/30 02:35:20;;;;;;;20.98;4.70;;;12.60;99.90;;;;;;5071239;28;20036;-70
2023/09/30 02:37:46;;;;;;;7.20;2.88;;;12.70;99.90;;;;;;5070823;28;20053;-70
2023/09/30 02:40:14;;;;;;;9.60;3.97;;;12.70;99.90;;;;;;5071323;28;20116;-71
2023/09/30 02:42:40;;;;;;;6.57;3.28;;;12.70;99.90;;;;;;5071160;28;20112;-71
2023/09/30 02:45:08;;;;;;;10.00;3.25;;;12.70;99.90;;;;;;5072390;28;20115;-70
2023/09/30 02:47:34;;;;;;;11.32;3.75;;;12.60;99.90;;;;;;5070411;28;20040;-70
2023/09/30 02:50:01;;;;;;;13.20;4.22;;;12.70;99.90;;;;;;5030957;28;20057;-70
2023/09/30 02:52:28;;;;;;;14.25;3.90;;;12.70;99.90;;;;;;5014458;28;20053;-71
2023/09/30 02:54:54;;;;;;;10.88;3.45;;;12.80;99.90;;;;;;5030190;28;20052;-70
2023/09/30 02:57:20;;;;;;;12.55;3.35;;;12.80;99.90;;;;;;5063983;28;20045;-70
2023/09/30 02:59:47;;;;;;;9.15;3.50;;;12.70;99.90;;;;;;5030569;28;20045;-70
2023/09/30 03:02:13;;;;;;;10.32;3.55;;;12.80;99.90;;;;;;5063630;28;20183;-70
2023/09/30 03:04:39;;;;;;;21.70;4.07;;;12.70;99.90;;;;;;5064098;28;20546;-70
2023/09/30 03:07:05;;;;;;;13.82;3.40;;;12.80;99.90;;;;;;5064239;28;20099;-70
2023/09/30 03:09:31;;;;;;;10.82;3.63;;;12.80;99.90;;;;;;5062521;28;20049;-71
2023/09/30 03:11:59;;;;;;;7.82;3.30;;;12.80;99.90;;;;;;5047327;28;20045;-70
2023/09/30 03:14:25;;;;;;;7.50;2.90;;;12.80;99.90;;;;;;5064061;28;20052;-70
2023/09/30 03:16:51;;;;;;;10.10;3.53;;;12.70;99.90;;;;;;5077382;28;20080;-71
2023/09/30 03:19:17;;;;;;;12.10;3.97;;;12.70;99.90;;;;;;5070585;28;20489;-70
2023/09/30 03:21:43;;;;;;;10.40;3.35;;;12.70;99.90;;;;;;5067951;28;20064;-70
2023/09/30 03:24:09;;;;;;;12.65;3.97;;;12.70;99.90;;;;;;5051641;28;20115;-70
2023/09/30 03:26:35;;;;;;;7.88;2.92;;;12.60;99.90;;;;;;5050336;28;20045;-70
2023/09/30 03:29:01;;;;;;;10.95;3.38;;;12.60;99.90;;;;;;5049966;28;20052;-70
2023/09/30 03:31:27;;;;;;;11.25;3.47;;;12.70;99.90;;;;;;5051472;28;20120;-70
2023/09/30 03:33:55;;;;;;;13.75;3.63;;;12.70;99.90;;;;;;5050807;28;20083;-70
2023/09/30 03:36:25;;;;;;;7.82;2.88;;;12.60;99.90;;;;;;5050763;28;20111;-70
2023/09/30 03:38:54;;;;;;;9.93;3.25;;;12.60;99.90;;;;;;5033669;28;20041;-71
2023/09/30 03:41:19;;;;;;;10.13;3.72;;;12.60;99.90;;;;;;5051769;28;20037;-71
2023/09/30 03:43:45;;;;;;;8.65;3.28;;;12.50;99.90;;;;;;5069076;28;20174;-70
2023/09/30 03:46:12;;;;;;;8.77;3.42;;;12.60;99.90;;;;;;5070428;28;20070;-71
2023/09/30 03:48:42;;;;;;;9.25;3.45;;;12.60;99.90;;;;;;5070619;28;20048;-71
2023/09/30 03:51:14;;;;;;;10.02;3.65;;;12.50;99.90;;;;;;5069374;28;20052;-71
2023/09/30 03:53:41;;;;;;;12.27;3.33;;;12.60;99.90;;;;;;5069486;28;20047;-71
2023/09/30 03:56:06;;;;;;;9.90;3.33;;;12.50;99.90;;;;;;5070304;28;20139;-70
2023/09/30 03:58:32;;;;;;;9.57;3.13;;;12.50;99.90;;;;;;5052342;28;20127;-71
2023/09/30 04:01:00;;;;;;;9.52;3.47;;;12.60;99.90;;;;;;5071002;28;20028;-71
2023/09/30 04:03:27;;;;;;;10.30;3.80;;;12.60;99.90;;;;;;5070077;28;20044;-71
2023/09/30 04:05:53;;;;;;;9.10;3.15;;;12.50;99.90;;;;;;5069375;28;20052;-71
2023/09/30 04:08:19;;;;;;;10.30;3.70;;;12.50;99.90;;;;;;5071159;28;20383;-71
2023/09/30 04:10:45;;;;;;;10.32;2.95;;;12.40;99.90;;;;;;5053325;28;20086;-71
2023/09/30 04:13:13;;;;;;;8.10;3.03;;;12.40;99.90;;;;;;5067774;28;20055;-71
2023/09/30 04:15:39;;;;;;;9.65;3.38;;;12.50;99.90;;;;;;5069909;28;20045;-71
2023/09/30 04:18:05;;;;;;;13.63;3.45;;;12.50;99.90;;;;;;5069428;28;20044;-70
2023/09/30 04:20:31;;;;;;;10.85;3.63;;;12.60;99.90;;;;;;5069642;28;20041;-71
2023/09/30 04:22:57;;;;;;;6.70;2.72;;;12.60;99.90;;;;;;5073081;28;20044;-70
2023/09/30 04:25:26;;;;;;;7.55;3.10;;;12.40;99.90;;;;;;5073793;28;20040;-71
2023/09/30 04:27:53;;;;;;;9.82;3.20;;;12.50;99.90;;;;;;5056773;28;20054;-70
2023/09/30 04:30:19;;;;;;;11.82;3.70;;;12.40;99.90;;;;;;5073364;28;20044;-71
2023/09/30 04:32:45;;;;;;;10.27;3.40;;;12.40;99.90;;;;;;5072527;28;20036;-71
2023/09/30 04:35:11;;;;;;;9.07;3.15;;;12.40;99.90;;;;;;5073280;28;20448;-70
2023/09/30 04:37:37;;;;;;;8.15;2.88;;;12.30;99.90;;;;;;5056284;28;20044;-71
2023/09/30 04:40:09;;;;;;;7.97;3.13;;;12.30;99.90;;;;;;5072662;28;20035;-71
2023/09/30 04:42:36;;;;;;;10.45;3.40;;;12.30;99.90;;;;;;5056482;28;20079;-71
2023/09/30 04:45:04;;;;;;;10.35;4.18;;;12.30;99.90;;;;;;5073666;28;20045;-71
2023/09/30 04:47:30;;;;;;;9.98;3.80;;;12.20;99.90;;;;;;5071867;28;20055;-70
2023/09/30 04:49:58;;;;;;;10.43;3.72;;;12.30;99.90;;;;;;5072909;28;20417;-70
2023/09/30 04:52:27;;;;;;;10.98;3.42;;;12.20;99.90;;;;;;5072986;28;20048;-71
2023/09/30 04:54:53;;;;;;;9.70;3.75;;;12.20;99.90;;;;;;5053383;28;20447;-71
2023/09/30 04:57:20;;;;;;;9.38;3.25;;;12.20;99.90;;;;;;5068173;28;20149;-70
2023/09/30 04:59:46;;;;;;;8.52;3.40;;;12.20;99.90;;;;;;5062797;28;20033;-71
2023/09/30 05:02:14;;;;;;;7.85;2.70;;;12.10;99.90;;;;;;5052212;28;20064;-71
2023/09/30 05:04:43;;;;;;;7.55;2.75;;;12.10;99.90;;;;;;5052650;28;20044;-71
2023/09/30 05:07:09;;;;;;;8.60;3.15;;;12.00;99.90;;;;;;5052155;28;20128;-71
2023/09/30 05:09:34;;;;;;;6.90;2.65;;;12.00;99.90;;;;;;5058500;28;20591;-71
2023/09/30 05:12:00;;;;;;;8.45;2.58;;;12.10;99.90;;;;;;5074388;28;20079;-71
2023/09/30 05:14:28;;;;;;;7.05;2.83;;;12.00;99.90;;;;;;5071872;28;20044;-70
2023/09/30 05:16:56;;;;;;;7.97;3.13;;;12.00;99.90;;;;;;5072450;28;20052;-70
2023/09/30 05:19:22;;;;;;;12.63;3.72;;;12.00;99.90;;;;;;5072515;28;20048;-70
2023/09/30 05:21:48;;;;;;;12.43;3.65;;;12.00;99.90;;;;;;5071489;28;20044;-71
2023/09/30 05:24:14;;;;;;;6.07;2.53;;;11.90;99.90;;;;;;5056417;28;20041;-71
2023/09/30 05:26:40;;;;;;;9.48;3.30;;;11.90;99.90;;;;;;5065974;28;20037;-71
2023/09/30 05:29:07;;;;;;;9.80;2.60;;;12.00;99.90;;;;;;5072948;28;20048;-71
2023/09/30 05:31:33;;;;;;;9.27;3.30;;;11.90;99.90;;;;;;5055441;28;20091;-71
2023/09/30 05:33:58;;;;;;;7.95;2.72;;;11.90;99.90;;;;;;5073439;28;20063;-71
2023/09/30 05:36:24;;;;;;;6.13;2.60;;;11.80;99.90;;;;;;5054336;28;20579;-70
2023/09/30 05:38:55;;;;;;;11.82;3.17;;;11.90;99.90;;;;;;5072255;28;20127;-71
2023/09/30 05:41:21;;;;;;;10.77;4.32;;;11.90;99.90;;;;;;5072031;28;20040;-71
2023/09/30 05:43:47;;;;;;;7.95;3.13;;;11.80;99.90;;;;;;5072348;28;20379;-71
2023/09/30 05:46:13;;;;;;;11.32;2.85;;;11.80;99.90;;;;;;5073142;28;20055;-71
2023/09/30 05:48:39;;;;;;;11.70;3.22;;;11.90;99.90;;;;;;5061066;28;20108;-70
2023/09/30 05:51:06;;;;;;;9.77;3.42;;;11.80;99.90;;;;;;5051253;28;20049;-70
2023/09/30 05:53:32;;;;;;;8.32;3.00;;;11.80;99.90;;;;;;5053491;28;20099;-71
2023/09/30 05:55:59;;;;;;;6.60;2.70;;;11.80;99.90;;;;;;5051744;28;20045;-71
2023/09/30 05:58:26;;;;;;;8.40;3.10;;;11.90;99.90;;;;;;5051169;28;20044;-71
2023/09/30 06:00:53;;;;;;;14.85;3.65;;;11.80;99.90;;;;;;5051361;28;20041;-71
2023/09/30 06:03:21;;;;;;;7.82;2.90;;;11.80;99.90;;;;;;5051494;28;20049;-72
2023/09/30 06:05:47;;;;;;;10.73;3.58;;;11.80;99.90;;;;;;5051204;28;20049;-71
2023/09/30 06:08:13;;;;;;;13.63;3.38;;;11.80;99.90;;;;;;5057358;28;20065;-71
2023/09/30 06:10:43;;;;;;;8.63;2.67;;;11.80;99.90;;;;;;5071543;28;20393;-71
2023/09/30 06:13:10;;;;;;;8.15;3.58;;;11.80;99.90;;;;;;5070702;28;20076;-71
2023/09/30 06:15:43;;;;;;;11.60;3.42;;;11.80;99.90;;;;;;5071239;28;20040;-71
2023/09/30 06:18:12;;;;;;;9.40;2.78;;;11.90;99.90;;;;;;5070327;28;20044;-71
2023/09/30 06:20:38;;;;;;;9.60;3.03;;;11.80;99.90;;;;;;5070610;28;20099;-71
2023/09/30 06:23:03;;;;;;;8.15;3.33;;;11.90;99.90;;;;;;5071400;28;20429;-70
2023/09/30 06:25:30;;;;;;;12.73;2.92;;;11.90;99.90;;;;;;5053771;28;20072;-71
2023/09/30 06:27:56;;;;;;;9.70;2.70;;;12.00;99.90;;;;;;5059620;28;20041;-70
2023/09/30 06:30:29;;;;;;;10.77;3.45;;;12.00;99.90;;;;;;5052760;28;20041;-71
2023/09/30 06:32:55;;;;;;;9.63;3.22;;;12.00;99.90;;;;;;5050590;28;20041;-70
2023/09/30 06:35:21;;;;;;;14.15;3.50;;;12.00;99.90;;;;;;5052304;28;20045;-70
2023/09/30 06:37:47;;;;;;;10.13;3.00;;;12.20;99.90;;;;;;5050881;28;20091;-71
2023/09/30 06:40:13;;;;;;;8.00;2.88;;;12.10;99.90;;;;;;5051654;28;20037;-70
2023/09/30 06:42:39;;;;;;;7.15;2.45;;;12.20;99.90;;;;;;5050847;28;20041;-70
2023/09/30 06:45:06;;;;;;;8.50;3.55;;;12.10;99.90;;;;;;5050355;28;20044;-70
2023/09/30 06:47:33;;;;;;;9.52;3.30;;;12.20;99.90;;;;;;5049961;28;20082;-70
2023/09/30 06:50:07;;;;;;;9.85;3.95;;;12.20;99.90;;;;;;5052219;28;20182;-70
2023/09/30 06:52:35;;;;;;;14.63;3.97;;;12.20;99.90;;;;;;5050634;28;20080;-71
2023/09/30 06:55:01;;;;;;;12.20;5.20;;;12.40;99.90;;;;;;5051010;28;20040;-71
2023/09/30 06:57:27;;;;;;;11.05;4.38;;;12.40;99.90;;;;;;5054298;28;20073;-70
2023/09/30 06:59:53;;;;;;;7.50;3.75;;;12.30;99.90;;;;;;5056946;28;20028;-71
2023/09/30 07:02:18;;;;;;;7.40;3.40;;;12.40;99.90;;;;;;5053912;28;20086;-71
2023/09/30 07:04:44;;;;;;;10.40;3.55;;;12.40;99.90;;;;;;5070411;28;20068;-70
2023/09/30 07:07:10;;;;;;;11.05;3.40;;;12.50;99.90;;;;;;5057906;28;20037;-70
2023/09/30 07:09:36;;;;;;;8.93;3.25;;;12.50;99.90;;;;;;5048291;28;20098;-71
2023/09/30 07:12:02;;;;;;;10.82;3.55;;;12.60;99.90;;;;;;5062016;28;20041;-71
2023/09/30 07:14:27;;;;;;;10.27;3.60;;;12.60;99.90;;;;;;5061091;28;20426;-71
2023/09/30 07:16:54;;;;;;;8.90;2.53;;;12.70;99.90;;;;;;5028524;28;20041;-71
2023/09/30 07:19:20;;;;;;;6.40;3.20;;;12.70;99.90;;;;;;5079974;28;20055;-70
2023/09/30 07:21:46;;;;;;;11.70;3.17;;;12.70;99.90;;;;;;5047232;28;20041;-70
2023/09/30 07:24:12;;;;;;;9.38;3.35;;;12.80;99.90;;;;;;5057421;28;20086;-71
2023/09/30 07:26:37;;;;;;;12.32;3.33;;;12.90;99.90;;;;;;5031991;28;20041;-71
2023/09/30 07:29:04;;;;;;;6.80;2.88;;;12.90;99.90;;;;;;5048301;28;20127;-71
2023/09/30 07:31:34;;;;;;;15.68;4.10;;;12.90;99.90;;;;;;5048573;28;20117;-71
2023/09/30 07:34:01;;;;;;;10.13;3.78;;;13.00;99.90;;;;;;5031681;28;20529;-70
2023/09/30 07:36:26;;;;;;;8.48;2.65;;;13.10;99.90;;;;;;5047398;28;21096;-71
2023/09/30 07:38:52;;;;;;;9.38;2.92;;;13.20;99.90;;;;;;5063434;28;20127;-70
2023/09/30 07:41:18;;;;;;;7.63;3.30;;;13.20;99.90;;;;;;5058121;28;20098;-71
2023/09/30 07:43:44;;;;;;;9.40;3.25;;;13.40;99.90;;;;;;5063977;28;20454;-71
2023/09/30 07:46:09;;;;;;;9.95;3.40;;;13.30;99.90;;;;;;5064580;28;20151;-70
2023/09/30 07:48:35;;;;;;;6.93;3.17;;;13.50;99.90;;;;;;5048326;28;20096;-70
2023/09/30 07:51:01;;;;;;;10.75;3.88;;;13.50;99.90;;;;;;5048569;28;20056;-70
2023/09/30 07:53:27;;;;;;;9.57;3.03;;;13.60;99.90;;;;;;5046743;28;20060;-70
2023/09/30 07:55:54;;;;;;;12.27;4.45;;;13.70;99.90;;;;;;5032223;28;20043;-70
2023/09/30 07:58:20;;;;;;;11.05;3.58;;;13.90;99.90;;;;;;5055304;28;20390;-70
2023/09/30 08:00:46;;;;;;;14.65;4.10;;;14.00;99.90;;;;;;5055704;28;20089;-70
2023/09/30 08:03:12;;;;;;;10.45;3.88;;;14.10;99.90;;;;;;5043494;28;20124;-71
2023/09/30 08:05:38;;;;;;;8.75;3.67;;;14.10;99.90;;;;;;5051158;28;20124;-71
2023/09/30 08:08:05;;;;;;;11.32;5.18;;;14.30;99.90;;;;;;5051883;28;20401;-71
2023/09/30 08:10:32;;;;;;;20.63;12.10;;;14.30;99.90;;;;;;5066863;28;20049;-71
2023/09/30 08:13:01;;;;;;;10.98;5.18;;;14.40;99.90;;;;;;5051844;28;20132;-71
2023/09/30 08:15:26;;;;;;;11.27;4.10;;;14.50;99.90;;;;;;5051645;28;20452;-71
2023/09/30 08:17:52;;;;;;;10.35;3.30;;;14.50;99.90;;;;;;5070035;28;20052;-71
2023/09/30 08:20:18;;;;;;;12.48;5.28;;;14.70;99.90;;;;;;5071270;28;20123;-71
2023/09/30 08:22:44;;;;;;;13.38;5.63;;;14.80;99.90;;;;;;5052935;28;20478;-71
2023/09/30 08:25:10;;;;;;;10.07;3.63;;;14.80;99.90;;;;;;5042573;28;20089;-71
2023/09/30 08:27:38;;;;;;;8.60;4.05;;;14.80;99.90;;;;;;5052983;28;20072;-71
2023/09/30 08:30:05;;;;;;;12.02;4.93;;;14.90;99.90;;;;;;5086017;28;20119;-71
2023/09/30 08:32:35;;;;;;;11.30;3.83;;;15.00;99.90;;;;;;5052468;28;20505;-71
2023/09/30 08:35:03;;;;;;;9.10;3.22;;;15.00;99.90;;;;;;5050641;28;20045;-71
2023/09/30 08:37:29;;;;;;;11.18;3.08;;;15.20;99.90;;;;;;5050867;28;20099;-71
2023/09/30 08:39:55;;;;;;;11.32;3.08;;;15.30;99.90;;;;;;5051567;28;20045;-71
2023/09/30 08:42:24;;;;;;;12.27;3.65;;;15.30;99.90;;;;;;5050432;28;20375;-71
2023/09/30 08:44:53;;;;;;;11.30;3.85;;;15.40;99.90;;;;;;5049616;28;20044;-72
2023/09/30 08:47:20;;;;;;;10.52;3.65;;;15.50;99.90;;;;;;5052277;28;20094;-69
2023/09/30 08:49:48;;;;;;;7.85;3.03;;;15.60;99.90;;;;;;5054189;28;20137;-77
2023/09/30 08:52:14;;;;;;;9.95;3.08;;;15.60;99.90;;;;;;5053942;28;20112;-76
2023/09/30 08:54:40;;;;;;;6.95;2.90;;;15.70;99.90;;;;;;5053329;28;20124;-76
2023/09/30 08:57:09;;;;;;;8.57;2.70;;;15.70;99.90;;;;;;5053171;28;20119;-77
2023/09/30 08:59:37;;;;;;;8.45;3.70;;;15.80;99.90;;;;;;5055836;28;20524;-76
2023/09/30 09:02:09;;;;;;;10.23;3.38;;;15.90;99.90;;;;;;5053527;28;20072;-77
2023/09/30 09:04:36;;;;;;;13.07;4.03;;;16.00;99.90;;;;;;5036448;28;20029;-77
2023/09/30 09:07:02;;;;;;;10.50;4.25;;;16.10;99.90;;;;;;5053410;28;20045;-76
2023/09/30 09:09:27;;;;;;;10.48;2.95;;;16.20;99.90;;;;;;5051989;28;20036;-77
2023/09/30 09:11:53;;;;;;;6.85;2.83;;;16.20;99.90;;;;;;5052767;28;20044;-77
2023/09/30 09:14:19;;;;;;;8.73;3.20;;;16.30;99.90;;;;;;5052725;28;20106;-76
2023/09/30 09:16:52;;;;;;;10.95;3.05;;;16.30;99.90;;;;;;5053094;28;20041;-76
2023/09/30 09:19:18;;;;;;;9.02;3.40;;;16.30;99.90;;;;;;5054214;28;20390;-73
2023/09/30 09:21:56;;;;;;;8.55;3.60;;;16.40;99.90;;;;;;5072068;28;20040;-70
2023/09/30 09:24:42;;;;;;;11.25;3.03;;;16.50;99.90;;;;;;5072834;28;20483;-72
2023/09/30 09:27:12;;;;;;;10.55;3.92;;;16.50;99.90;;;;;;5070168;28;20048;-74
2023/09/30 09:29:41;;;;;;;10.23;2.85;;;16.60;99.90;;;;;;5071538;28;20066;-73
2023/09/30 09:32:17;;;;;;;8.75;2.58;;;16.70;99.90;;;;;;5070885;28;20043;-74
2023/09/30 09:35:00;;;;;;;11.40;2.95;;;16.70;99.90;;;;;;5034509;28;20049;-74
2023/09/30 09:37:26;;;;;;;7.38;3.35;;;16.70;99.90;;;;;;5054073;28;20056;-71
2023/09/30 09:39:57;;;;;;;9.50;2.00;;;16.60;99.90;;;;;;5051786;28;20072;-71
2023/09/30 09:42:31;;;;;;;9.00;2.50;;;16.70;99.90;;;;;;5059932;28;20044;-71
2023/09/30 09:45:02;;;;;;;6.07;2.17;;;16.70;99.90;;;;;;5053807;28;20052;-76
2023/09/30 09:47:29;;;;;;;10.05;2.58;;;16.70;99.90;;;;;;5064312;28;20040;-68
2023/09/30 09:49:57;;;;;;;12.48;3.00;;;16.80;99.90;;;;;;5050547;28;20098;-68
2023/09/30 09:52:24;;;;;;;15.15;3.00;;;16.80;99.90;;;;;;5058854;28;20417;-67
2023/09/30 09:54:51;;;;;;;8.75;2.83;;;16.80;99.90;;;;;;5061030;28;20166;-76
2023/09/30 09:57:19;;;;;;;8.95;2.30;;;16.70;99.90;;;;;;5055452;28;20045;-77
2023/09/30 09:59:49;;;;;;;5.45;2.15;;;16.70;99.90;;;;;;5051669;28;20040;-72
2023/09/30 10:02:16;;;;;;;7.68;1.88;;;16.60;99.90;;;;;;5062705;28;20393;-72
2023/09/30 10:04:44;;;;;;;7.35;2.38;;;16.60;99.90;;;;;;5052507;28;20045;-72
2023/09/30 10:07:16;;;;;;;10.93;2.42;;;16.50;99.90;;;;;;5054604;28;20498;-72
2023/09/30 10:09:46;;;;;;;8.68;1.77;;;16.50;99.90;;;;;;5057337;28;20055;-70
2023/09/30 10:12:13;;;;;;;9.60;2.90;;;16.50;99.90;;;;;;5068177;28;20075;-70
2023/09/30 10:14:38;;;;;;;7.35;1.98;;;16.40;99.90;;;;;;5072657;28;20485;-68
2023/09/30 10:17:04;;;;;;;5.63;2.15;;;16.40;99.90;;;;;;5064609;28;20056;-67
2023/09/30 10:19:32;;;;;;;9.50;2.08;;;16.50;99.90;;;;;;5050035;28;20095;-69
2023/09/30 10:22:17;;;;;;;9.95;2.95;;;16.70;99.90;;;;;;5061767;28;20044;-66
2023/09/30 10:24:43;;;;;;;10.27;2.95;;;16.90;99.90;;;;;;5051755;28;20049;-65
2023/09/30 10:27:28;;;;;;;11.55;3.45;;;17.00;99.90;;;;;;5051200;28;20120;-65
2023/09/30 10:30:16;;;;;;;9.27;2.67;;;17.10;99.90;;;;;;5051519;28;20486;-65
2023/09/30 10:32:51;;;;;;;8.13;2.00;;;17.00;99.90;;;;;;5051830;28;20540;-64
2023/09/30 10:35:21;;;;;;;8.32;1.92;;;17.00;99.90;;;;;;5069395;28;20037;-64
2023/09/30 10:37:48;;;;;;;6.45;2.20;;;16.90;99.90;;;;;;5070517;28;20436;-64
2023/09/30 10:40:31;;;;;;;7.95;1.88;;;17.00;99.90;;;;;;5071337;28;20384;-67
2023/09/30 10:42:57;;;;;;;6.70;2.20;;;17.10;99.90;;;;;;5071217;28;20108;-70
2023/09/30 10:45:45;;;;;;;7.80;1.90;;;17.20;99.90;;;;;;5070626;28;20571;-76
2023/09/30 10:48:28;;;;;;;10.82;2.78;;;17.30;99.90;;;;;;5071175;28;20493;-76
2023/09/30 10:50:56;;;;;;;7.20;2.30;;;17.40;99.90;;;;;;5071007;28;20081;-77
2023/09/30 10:53:22;;;;;;;9.25;1.83;;;17.50;99.90;;;;;;5071296;28;20041;-78
2023/09/30 10:55:55;;;;;;;12.35;2.88;;;17.50;99.90;;;;;;5071080;28;20496;-77
2023/09/30 10:58:21;;;;;;;8.13;2.17;;;17.50;99.90;;;;;;5054352;28;20040;-77
2023/09/30 11:00:56;;;;;;;9.00;2.28;;;17.50;99.90;;;;;;5054262;28;20071;-76
2023/09/30 11:03:22;;;;;;;13.02;3.35;;;17.40;99.90;;;;;;5071369;28;20488;-76
2023/09/30 11:05:48;;;;;;;8.63;1.77;;;17.40;99.90;;;;;;5063980;28;20063;-74
2023/09/30 11:08:19;;;;;;;8.82;2.45;;;17.30;99.90;;;;;;5062095;28;20048;-71
2023/09/30 11:10:52;;;;;;;12.95;2.17;;;17.30;99.90;;;;;;5072251;28;20036;-75
2023/09/30 11:13:18;;;;;;;8.82;2.15;;;17.20;99.90;;;;;;5069251;28;20479;-78
2023/09/30 11:15:45;;;;;;;5.40;1.80;;;17.20;99.90;;;;;;5070778;28;20124;-77
2023/09/30 11:18:18;;;;;;;7.10;2.10;;;17.30;99.90;;;;;;5070682;28;20055;-78
2023/09/30 11:20:44;;;;;;;7.50;2.20;;;17.40;99.90;;;;;;5052101;28;20139;-78
2023/09/30 11:23:11;;;;;;;6.57;1.50;;;17.50;99.90;;;;;;5070981;28;20028;-77
2023/09/30 11:25:38;;;;;;;5.85;1.70;;;17.60;99.90;;;;;;5070460;28;20048;-76
2023/09/30 11:28:15;;;;;;;7.45;2.20;;;17.70;99.90;;;;;;5070790;28;20048;-76
2023/09/30 11:30:57;;;;;;;7.55;2.85;;;17.70;99.90;;;;;;5071504;28;20142;-76
2023/09/30 11:33:24;;;;;;;8.30;1.45;;;17.80;99.90;;;;;;5074657;28;20516;-76
2023/09/30 11:36:20;;;;;;;6.32;2.13;;;17.80;99.90;;;;;;5057733;28;20101;-77
2023/09/30 11:38:48;;;;;;;8.98;1.85;;;17.90;99.90;;;;;;5058606;28;20053;-77
2023/09/30 11:41:15;;;;;;;6.57;2.70;;;17.90;99.90;;;;;;5069182;28;20062;-76
2023/09/30 11:44:18;;;;;;;7.05;2.60;;;17.90;99.90;;;;;;5054650;28;20037;-76
2023/09/30 11:46:54;;;;;;;7.35;2.10;;;17.90;99.90;;;;;;5054854;28;20489;-77
2023/09/30 11:49:34;;;;;;;7.47;1.92;;;17.90;99.90;;;;;;5054266;28;20057;-76
2023/09/30 11:52:04;;;;;;;7.63;2.00;;;18.00;99.90;;;;;;5037942;28;20045;-76
2023/09/30 11:54:32;;;;;;;6.93;1.65;;;18.00;99.90;;;;;;5053959;28;20083;-78
2023/09/30 11:56:58;;;;;;;6.72;2.10;;;17.90;99.90;;;;;;5037842;28;20593;-78
2023/09/30 11:59:24;;;;;;;9.82;2.22;;;17.90;99.90;;;;;;5055172;28;20398;-78
2023/09/30 12:01:51;;;;;;;7.00;1.90;;;17.80;99.90;;;;;;5057475;28;20043;-78
2023/09/30 12:04:19;;;;;;;7.40;1.60;;;17.80;99.90;;;;;;5054031;28;20099;-79
2023/09/30 12:06:46;;;;;;;7.22;2.15;;;17.70;99.90;;;;;;5054307;28;20049;-74
2023/09/30 12:09:14;;;;;;;9.20;2.95;;;17.70;99.90;;;;;;5054560;28;20045;-73
2023/09/30 12:11:43;;;;;;;9.38;1.90;;;17.70;99.90;;;;;;5053697;28;20037;-75
2023/09/30 12:14:11;;;;;;;9.55;3.78;;;17.70;99.90;;;;;;5053993;28;20162;-75
2023/09/30 12:16:37;;;;;;;7.40;2.17;;;17.70;99.90;;;;;;5053079;28;20044;-76
2023/09/30 12:19:03;;;;;;;7.43;2.22;;;17.70;99.90;;;;;;5067069;28;20041;-76
2023/09/30 12:21:28;;;;;;;7.68;2.15;;;17.70;99.90;;;;;;5063639;28;20068;-75
2023/09/30 12:23:55;;;;;;;8.40;1.92;;;17.70;99.90;;;;;;5062538;28;20124;-73
2023/09/30 12:26:20;;;;;;;5.45;1.88;;;17.80;99.90;;;;;;5060870;28;20032;-73
2023/09/30 12:28:47;;;;;;;5.95;1.90;;;17.80;99.90;;;;;;5044025;28;20354;-74
2023/09/30 12:31:13;;;;;;;6.80;1.60;;;17.90;99.90;;;;;;5045091;28;20079;-70
2023/09/30 12:33:40;;;;;;;5.75;1.60;;;18.00;99.90;;;;;;5051260;28;20045;-69
2023/09/30 12:36:07;;;;;;;8.73;2.20;;;18.00;99.90;;;;;;5051605;28;20444;-69
2023/09/30 12:38:33;;;;;;;11.93;2.08;;;18.10;99.90;;;;;;5050501;28;20044;-69
2023/09/30 12:41:00;;;;;;;7.43;1.92;;;18.20;99.90;;;;;;5051368;28;20480;-69
2023/09/30 12:43:25;;;;;;;6.07;1.80;;;18.30;99.90;;;;;;5049791;28;20053;-69
2023/09/30 12:45:51;;;;;;;8.73;1.60;;;18.30;99.90;;;;;;5051699;28;20083;-69